CheckWX is a tool to help pilots better visualize weather data.  It is not intended as a substitute for an official pre-flight weather briefing.

02:04:07 UTC

UTNN TAF
Nukus Airport
Nukus, Uzbekistan
TAF UTNN 182300Z 1900/1924 35010G20KT 9999 SCT040 BKN100 TEMPO 1900/1906 02016G26KT -SHRA BKN040CB OVC100

Mar-19@
00:00 UTC

Mar-19 @ 00:00 UTC

Mar-20@
00:00 UTC

Mar-20 @ 00:00 UTC

TAF UTNN 182300Z 1900/1924 35010G20KT 9999 SCT040 BKN100
Wind
  • 350° at 10 KTS
  • {Gusting to 20 KTS
Cloud Levels
  • Scattered at 4,000' AGL
  • Broken at 10,000' AGL

Mar-19@
00:00 UTC

Mar-19 @ 00:00 UTC

Mar-19@
06:00 UTC

Mar-19 @ 06:00 UTC

TEMPO 1900/1906 02016G26KT -SHRA BKN040CB OVC100

Temporary

Temporary Changes expected for less than half the time period

Wind
  • 020° at 16 KTS
  • {Gusting to 26 KTS
Conditions
Light Rain
Cloud Levels
  • Broken at 4,000' AGL
  • Overcast at 10,000' AGL